createdAt,value
2019-03-12T00:01:29.674Z,2.30
2019-03-12T00:03:56.048Z,2.30
2019-03-12T00:06:22.282Z,2.30
2019-03-12T00:08:48.905Z,2.30
2019-03-12T00:11:15.229Z,2.40
2019-03-12T00:13:41.605Z,2.30
2019-03-12T00:16:08.121Z,2.40
2019-03-12T00:18:34.399Z,2.30
2019-03-12T00:21:00.898Z,2.30
2019-03-12T00:23:27.260Z,2.30
2019-03-12T00:25:53.771Z,2.30
2019-03-12T00:28:20.301Z,2.30
2019-03-12T00:30:46.591Z,2.20
2019-03-12T00:33:12.925Z,2.30
2019-03-12T00:35:39.485Z,2.20
2019-03-12T00:38:05.788Z,2.20
2019-03-12T00:40:32.416Z,2.30
2019-03-12T00:42:58.649Z,2.20
2019-03-12T00:45:25.282Z,2.20
2019-03-12T00:47:51.606Z,2.20
2019-03-12T00:50:17.874Z,2.20
2019-03-12T00:52:44.271Z,2.20
2019-03-12T00:55:11.080Z,2.10
2019-03-12T00:57:37.325Z,2.10
2019-03-12T01:00:13.711Z,2.10
2019-03-12T01:02:39.966Z,2.10
2019-03-12T01:05:06.426Z,2.10
2019-03-12T01:07:32.993Z,2.10
2019-03-12T01:09:59.380Z,2.00
2019-03-12T01:12:25.687Z,2.00
2019-03-12T01:14:52.100Z,2.00
2019-03-12T01:17:18.395Z,2.00
2019-03-12T01:19:45.883Z,2.00
2019-03-12T01:22:12.148Z,1.90
2019-03-12T01:24:38.717Z,1.90
2019-03-12T01:27:05.269Z,2.00
2019-03-12T01:29:31.558Z,1.90
2019-03-12T01:31:57.822Z,1.90
2019-03-12T01:34:24.437Z,2.00
2019-03-12T01:36:51.090Z,1.90
2019-03-12T01:39:17.430Z,1.90
2019-03-12T01:41:43.822Z,1.90
2019-03-12T01:44:10.214Z,1.80
2019-03-12T01:46:36.758Z,1.80
2019-03-12T01:49:03.070Z,1.80
2019-03-12T01:51:31.183Z,1.70
2019-03-12T01:53:57.682Z,1.70
2019-03-12T01:56:23.972Z,1.70
2019-03-12T01:58:50.621Z,1.70
2019-03-12T02:01:17.167Z,1.70
2019-03-12T02:03:43.459Z,1.70
2019-03-12T02:06:10.011Z,1.70
2019-03-12T02:08:36.470Z,1.70
2019-03-12T02:11:02.785Z,1.70
2019-03-12T02:13:29.057Z,1.70
2019-03-12T02:15:55.730Z,1.70
2019-03-12T02:18:23.021Z,1.70
2019-03-12T02:20:50.417Z,1.70
2019-03-12T02:23:16.950Z,1.70
2019-03-12T02:25:43.897Z,1.60
2019-03-12T02:28:11.224Z,1.60
2019-03-12T02:30:37.543Z,1.60
2019-03-12T02:33:03.921Z,1.60
2019-03-12T02:35:30.242Z,1.60
2019-03-12T02:37:56.621Z,1.60
2019-03-12T02:40:23.006Z,1.60
2019-03-12T02:42:49.600Z,1.70
2019-03-12T02:45:16.100Z,1.60
2019-03-12T02:47:42.863Z,1.60
2019-03-12T02:50:11.266Z,1.60
2019-03-12T02:52:37.950Z,1.60
2019-03-12T02:55:06.612Z,1.60
2019-03-12T02:57:33.256Z,1.50
2019-03-12T02:59:59.638Z,1.40
2019-03-12T03:02:25.906Z,1.30
2019-03-12T03:04:54.224Z,1.30
2019-03-12T03:07:26.000Z,1.20
2019-03-12T03:09:52.698Z,1.10
2019-03-12T03:12:19.154Z,1.10
2019-03-12T03:14:45.544Z,1.10
2019-03-12T03:17:13.750Z,1.00
2019-03-12T03:19:42.438Z,1.00
2019-03-12T03:22:08.830Z,1.00
2019-03-12T03:24:36.333Z,0.90
2019-03-12T03:27:02.865Z,0.90
2019-03-12T03:29:30.405Z,0.90
2019-03-12T03:31:56.782Z,0.90
2019-03-12T03:34:27.842Z,0.80
2019-03-12T03:36:51.723Z,0.80
2019-03-12T03:39:18.113Z,0.90
2019-03-12T03:41:44.587Z,0.90
2019-03-12T03:44:11.240Z,0.90
2019-03-12T03:46:37.868Z,0.80
2019-03-12T03:49:04.427Z,0.80
2019-03-12T03:51:30.758Z,0.80
2019-03-12T03:53:57.101Z,0.80
2019-03-12T03:56:23.672Z,0.80
2019-03-12T03:58:50.050Z,0.70
2019-03-12T04:01:16.682Z,0.70
2019-03-12T04:03:43.314Z,0.60
2019-03-12T04:06:09.632Z,0.60
2019-03-12T04:08:37.391Z,0.60
2019-03-12T04:11:03.676Z,0.60
2019-03-12T04:13:31.952Z,0.50
2019-03-12T04:15:58.377Z,0.50
2019-03-12T04:18:24.702Z,0.50
2019-03-12T04:20:51.275Z,0.50
2019-03-12T04:23:17.655Z,0.40
2019-03-12T04:25:43.934Z,0.40
2019-03-12T04:28:10.586Z,0.30
2019-03-12T04:30:37.196Z,0.30
2019-03-12T04:33:03.529Z,0.30
2019-03-12T04:35:32.574Z,0.30
2019-03-12T04:37:59.233Z,0.30
2019-03-12T04:40:25.705Z,0.30
2019-03-12T04:42:57.224Z,0.30
2019-03-12T04:45:29.282Z,0.30
2019-03-12T04:47:56.404Z,0.30
2019-03-12T04:50:23.674Z,0.30
2019-03-12T04:52:50.058Z,0.30
2019-03-12T04:55:22.747Z,0.30
2019-03-12T04:57:51.566Z,0.30
2019-03-12T05:00:19.998Z,0.30
2019-03-12T05:02:46.598Z,0.30
2019-03-12T05:05:13.222Z,0.30
2019-03-12T05:07:39.975Z,0.30
2019-03-12T05:10:09.545Z,0.20
2019-03-12T05:12:36.205Z,0.20
2019-03-12T05:15:06.385Z,0.10
2019-03-12T05:17:32.980Z,0.10
2019-03-12T05:19:59.302Z,0.10
2019-03-12T05:22:25.808Z,0.10
2019-03-12T05:24:52.081Z,0.10
2019-03-12T05:27:18.415Z,0.00
2019-03-12T05:29:44.940Z,0.10
2019-03-12T05:32:11.445Z,0.10
2019-03-12T05:34:38.056Z,0.10
2019-03-12T05:37:04.650Z,0.10
2019-03-12T05:39:31.612Z,0.00
2019-03-12T05:41:58.075Z,0.00
2019-03-12T05:44:25.366Z,0.00
2019-03-12T05:46:52.027Z,0.00
2019-03-12T05:49:18.516Z,-0.10
2019-03-12T05:51:44.878Z,-0.10
2019-03-12T05:54:11.308Z,-0.10
2019-03-12T05:56:37.832Z,-0.20
2019-03-12T05:59:04.402Z,-0.10
2019-03-12T06:01:30.790Z,-0.10
2019-03-12T06:03:57.448Z,-0.10
2019-03-12T06:06:24.078Z,-0.10
2019-03-12T06:08:50.653Z,0.00
2019-03-12T06:11:16.925Z,0.00
2019-03-12T06:13:43.490Z,0.00
2019-03-12T06:16:10.061Z,0.10
2019-03-12T06:18:36.451Z,0.10
2019-03-12T06:21:02.849Z,0.10
2019-03-12T06:23:29.236Z,0.20
2019-03-12T06:25:55.634Z,0.20
2019-03-12T06:28:22.059Z,0.30
2019-03-12T06:30:50.463Z,0.30
2019-03-12T06:33:35.282Z,0.30
2019-03-12T06:36:06.528Z,0.30
2019-03-12T06:38:37.571Z,0.40
2019-03-12T06:41:08.443Z,0.40
2019-03-12T06:43:48.581Z,0.40
2019-03-12T06:46:27.088Z,0.50
2019-03-12T06:48:55.626Z,0.60
2019-03-12T06:51:26.578Z,0.70
2019-03-12T06:53:57.526Z,0.80
2019-03-12T06:56:37.973Z,0.80
2019-03-12T06:59:09.151Z,0.80
2019-03-12T07:01:46.286Z,0.90
2019-03-12T07:04:14.744Z,0.90
2019-03-12T07:06:48.763Z,1.10
2019-03-12T07:09:20.037Z,1.40
2019-03-12T07:11:48.402Z,1.80
2019-03-12T07:14:22.561Z,2.20
2019-03-12T07:16:53.637Z,2.50
2019-03-12T07:19:24.931Z,2.80
2019-03-12T07:21:53.625Z,3.00
2019-03-12T07:24:24.877Z,3.20
2019-03-12T07:26:56.034Z,3.60
2019-03-12T07:29:33.212Z,4.20
2019-03-12T07:32:10.915Z,4.50
2019-03-12T07:34:47.914Z,4.80
2019-03-12T07:38:15.056Z,5.00
2019-03-12T07:40:59.706Z,5.10
2019-03-12T07:43:33.826Z,5.20
2019-03-12T07:46:17.968Z,5.30
2019-03-12T07:48:46.593Z,5.50
2019-03-12T07:51:23.877Z,5.80
2019-03-12T07:54:07.385Z,6.10
2019-03-12T07:56:41.403Z,6.50
2019-03-12T07:59:21.909Z,6.70
2019-03-12T08:01:50.107Z,7.00
2019-03-12T08:04:27.514Z,7.30
2019-03-12T08:07:13.878Z,7.30
2019-03-12T08:09:51.136Z,7.30
2019-03-12T08:12:19.535Z,7.50
2019-03-12T08:14:47.946Z,7.70
2019-03-12T08:17:16.243Z,7.70
2019-03-12T08:19:45.409Z,7.80
2019-03-12T08:22:22.541Z,7.90
2019-03-12T08:25:01.195Z,7.80
2019-03-12T08:27:32.478Z,8.00
2019-03-12T08:30:15.647Z,8.60
2019-03-12T08:32:44.319Z,8.60
2019-03-12T08:35:15.454Z,8.80
2019-03-12T08:37:44.645Z,9.20
2019-03-12T08:40:28.852Z,9.60
2019-03-12T08:43:06.466Z,10.00
2019-03-12T08:45:51.248Z,10.50
2019-03-12T08:48:25.607Z,10.90
2019-03-12T08:51:11.937Z,11.10
2019-03-12T08:53:40.346Z,10.80
2019-03-12T08:56:11.296Z,10.60
2019-03-12T08:58:39.818Z,10.40
2019-03-12T09:01:11.333Z,10.60
2019-03-12T09:03:42.494Z,10.80
2019-03-12T09:06:10.787Z,10.80
2019-03-12T09:08:39.233Z,10.90
2019-03-12T09:11:10.227Z,11.20
2019-03-12T09:13:41.447Z,11.20
2019-03-12T09:16:26.526Z,11.30
2019-03-12T09:19:00.964Z,11.30
2019-03-12T09:21:27.818Z,11.70
2019-03-12T09:24:05.532Z,12.00
2019-03-12T09:26:50.097Z,12.50
2019-03-12T09:29:27.047Z,12.60
2019-03-12T09:31:55.758Z,12.20
2019-03-12T09:34:24.343Z,11.70
2019-03-12T09:36:58.813Z,11.20
2019-03-12T09:39:36.274Z,10.70
2019-03-12T09:42:20.900Z,10.70
2019-03-12T09:45:01.578Z,10.90
2019-03-12T09:47:31.094Z,10.90
2019-03-12T09:49:59.556Z,10.90
2019-03-12T09:52:27.833Z,11.00
2019-03-12T09:55:14.156Z,10.70
2019-03-12T09:57:45.133Z,10.30
2019-03-12T10:00:24.284Z,10.40
2019-03-12T10:03:10.441Z,10.80
2019-03-12T10:05:47.975Z,11.30
2019-03-12T10:08:28.376Z,11.70
2019-03-12T10:11:00.046Z,12.00
2019-03-12T10:13:37.529Z,12.20
2019-03-12T10:16:12.303Z,12.20
2019-03-12T10:18:43.302Z,12.30
2019-03-12T10:21:17.337Z,12.30
2019-03-12T10:24:01.853Z,12.50
2019-03-12T10:26:30.064Z,12.60
2019-03-12T10:29:10.529Z,13.20
2019-03-12T10:31:56.144Z,13.30
2019-03-12T10:34:29.750Z,13.60
2019-03-12T10:37:16.242Z,13.70
2019-03-12T10:40:00.394Z,13.80
2019-03-12T10:42:40.470Z,13.60
2019-03-12T10:45:20.367Z,13.50
2019-03-12T10:47:48.756Z,13.30
2019-03-12T10:50:15.123Z,13.00
2019-03-12T10:52:41.491Z,13.30
2019-03-12T10:55:12.800Z,13.70
2019-03-12T10:57:36.454Z,14.00
2019-03-12T11:00:12.275Z,14.20
2019-03-12T11:02:40.723Z,14.30
2019-03-12T11:05:07.137Z,14.40
2019-03-12T11:07:33.874Z,14.60
2019-03-12T11:10:00.516Z,14.20
2019-03-12T11:12:27.075Z,14.20
2019-03-12T11:14:53.369Z,14.10
2019-03-12T11:17:20.761Z,14.00
2019-03-12T11:19:47.242Z,14.10
2019-03-12T11:22:14.049Z,14.20
2019-03-12T11:24:40.325Z,14.30
2019-03-12T11:27:06.873Z,14.20
2019-03-12T11:29:33.350Z,14.30
2019-03-12T11:31:59.949Z,13.90
2019-03-12T11:34:26.398Z,13.70
2019-03-12T11:36:52.857Z,13.50
2019-03-12T11:39:19.173Z,13.60
2019-03-12T11:41:45.696Z,13.90
2019-03-12T11:44:12.068Z,14.20
2019-03-12T11:46:44.075Z,14.50
2019-03-12T11:49:06.887Z,14.50
2019-03-12T11:51:33.493Z,14.60
2019-03-12T11:54:00.246Z,14.50
2019-03-12T11:56:26.906Z,14.20
2019-03-12T11:58:53.424Z,14.20
2019-03-12T12:01:19.989Z,14.30
2019-03-12T12:03:46.415Z,14.30
2019-03-12T12:06:12.986Z,14.50
2019-03-12T12:08:39.380Z,14.60
2019-03-12T12:11:06.049Z,14.90
2019-03-12T12:13:32.342Z,15.20
2019-03-12T12:15:59.062Z,15.10
2019-03-12T12:18:25.567Z,14.70
2019-03-12T12:20:52.053Z,14.50
2019-03-12T12:23:18.610Z,14.20
2019-03-12T12:25:45.009Z,13.80
2019-03-12T12:28:11.380Z,13.80
2019-03-12T12:30:38.152Z,13.60
2019-03-12T12:33:04.829Z,14.00
2019-03-12T12:35:31.153Z,13.80
2019-03-12T12:37:57.452Z,13.80
2019-03-12T12:40:24.170Z,13.80
2019-03-12T12:42:50.914Z,13.70
2019-03-12T12:45:24.180Z,13.70
2019-03-12T12:47:50.819Z,13.70
2019-03-12T12:50:17.412Z,13.50
2019-03-12T12:52:44.003Z,13.40
2019-03-12T12:55:13.331Z,13.30
2019-03-12T12:57:40.340Z,13.00
2019-03-12T13:00:16.529Z,13.10
2019-03-12T13:02:43.109Z,12.70
2019-03-12T13:05:09.891Z,12.90
2019-03-12T13:07:36.262Z,12.90
2019-03-12T13:10:06.469Z,12.80
2019-03-12T13:12:32.857Z,12.80
2019-03-12T13:14:59.275Z,12.10
2019-03-12T13:17:25.667Z,11.60
2019-03-12T13:19:53.234Z,11.40
2019-03-12T13:22:20.058Z,11.50
2019-03-12T13:24:47.328Z,11.70
2019-03-12T13:27:13.709Z,11.50
2019-03-12T13:29:40.090Z,11.30
2019-03-12T13:32:13.443Z,11.10
2019-03-12T13:34:35.266Z,11.00
2019-03-12T13:37:01.639Z,11.00
2019-03-12T13:39:28.181Z,10.90
2019-03-12T13:41:54.721Z,11.00
2019-03-12T13:44:21.085Z,11.10
2019-03-12T13:46:47.513Z,11.00
2019-03-12T13:49:13.937Z,11.00
2019-03-12T13:51:40.562Z,10.80
2019-03-12T13:54:09.617Z,10.70
2019-03-12T13:56:35.330Z,10.50
2019-03-12T13:59:03.233Z,10.30
2019-03-12T14:01:30.717Z,10.30
2019-03-12T14:04:09.661Z,10.00
2019-03-12T14:06:25.594Z,10.10
2019-03-12T14:08:51.932Z,10.00
2019-03-12T14:11:18.603Z,10.10
2019-03-12T14:13:44.964Z,10.00
2019-03-12T14:16:11.615Z,9.90
2019-03-12T14:18:38.241Z,9.70
2019-03-12T14:21:10.134Z,9.60
2019-03-12T14:23:49.156Z,9.50
2019-03-12T14:26:15.741Z,9.40
2019-03-12T14:28:42.243Z,9.40
2019-03-12T14:31:08.989Z,9.40
2019-03-12T14:33:35.569Z,9.40
2019-03-12T14:36:02.148Z,9.40
2019-03-12T14:38:28.457Z,9.40
2019-03-12T14:40:56.039Z,9.40
2019-03-12T14:43:22.799Z,9.30
2019-03-12T14:45:50.477Z,9.20
2019-03-12T14:48:39.992Z,9.10
2019-03-12T14:51:22.009Z,9.10
2019-03-12T14:54:04.598Z,9.00
2019-03-12T14:56:31.070Z,8.90
2019-03-12T14:58:57.821Z,8.90
2019-03-12T15:01:24.937Z,8.90
2019-03-12T15:03:51.955Z,8.80
2019-03-12T15:06:18.376Z,8.80
2019-03-12T15:08:45.063Z,8.80
2019-03-12T15:11:11.320Z,8.70
2019-03-12T15:13:37.631Z,8.70
2019-03-12T15:16:04.113Z,8.70
2019-03-12T15:18:30.539Z,8.70
2019-03-12T15:20:57.013Z,8.60
2019-03-12T15:23:23.387Z,8.60
2019-03-12T15:25:49.989Z,8.60
2019-03-12T15:28:16.675Z,8.50
2019-03-12T15:30:42.981Z,8.50
2019-03-12T15:33:09.277Z,8.60
2019-03-12T15:35:35.951Z,8.60
2019-03-12T15:38:02.529Z,8.50
2019-03-12T15:40:29.198Z,8.50
2019-03-12T15:42:55.790Z,8.50
2019-03-12T15:45:22.546Z,8.40
2019-03-12T15:47:48.934Z,8.40
2019-03-12T15:50:18.837Z,8.40
2019-03-12T15:52:44.426Z,8.40
2019-03-12T15:55:11.024Z,8.40
2019-03-12T15:57:37.398Z,8.40
2019-03-12T16:00:13.303Z,8.30
2019-03-12T16:02:39.893Z,8.30
2019-03-12T16:05:07.383Z,8.30
2019-03-12T16:07:35.049Z,8.30
2019-03-12T16:10:02.023Z,8.20
2019-03-12T16:12:28.722Z,8.20
2019-03-12T16:15:08.414Z,8.20
2019-03-12T16:17:34.766Z,8.10
2019-03-12T16:20:01.261Z,8.10
2019-03-12T16:22:27.689Z,8.00
2019-03-12T16:24:54.322Z,8.00
2019-03-12T16:27:20.614Z,8.00
2019-03-12T16:29:47.173Z,7.90
2019-03-12T16:32:14.767Z,7.90
2019-03-12T16:34:41.158Z,7.80
2019-03-12T16:37:07.910Z,7.70
2019-03-12T16:39:34.512Z,7.70
2019-03-12T16:42:00.889Z,7.60
2019-03-12T16:44:27.441Z,7.50
2019-03-12T16:46:54.219Z,7.40
2019-03-12T16:49:20.623Z,7.40
2019-03-12T16:51:47.105Z,7.30
2019-03-12T16:54:13.633Z,7.20
2019-03-12T16:56:45.302Z,7.10
2019-03-12T16:59:08.974Z,7.10
2019-03-12T17:01:35.801Z,7.00
2019-03-12T17:04:02.406Z,7.00
2019-03-12T17:06:28.710Z,7.00
2019-03-12T17:08:55.116Z,6.90
2019-03-12T17:11:21.753Z,6.90
2019-03-12T17:13:48.051Z,6.80
2019-03-12T17:16:14.477Z,6.70
2019-03-12T17:18:41.248Z,6.60
2019-03-12T17:21:07.567Z,6.60
2019-03-12T17:23:34.029Z,6.60
2019-03-12T17:26:00.526Z,6.60
2019-03-12T17:28:27.135Z,6.60
2019-03-12T17:30:53.718Z,6.60
2019-03-12T17:33:20.243Z,6.60
2019-03-12T17:35:47.536Z,6.50
2019-03-12T17:38:14.423Z,6.40
2019-03-12T17:40:40.914Z,6.40
2019-03-12T17:43:07.670Z,6.30
2019-03-12T17:45:34.272Z,6.30
2019-03-12T17:48:00.834Z,6.20
2019-03-12T17:50:27.458Z,6.10
2019-03-12T17:52:53.926Z,6.20
2019-03-12T17:55:20.698Z,6.10
2019-03-12T17:57:50.350Z,6.10
2019-03-12T18:00:21.553Z,6.10
2019-03-12T18:02:48.045Z,6.00
2019-03-12T18:05:14.518Z,6.00
2019-03-12T18:07:42.572Z,6.00
2019-03-12T18:10:13.328Z,6.00
2019-03-12T18:12:40.362Z,6.00
2019-03-12T18:15:19.319Z,5.90
2019-03-12T18:17:45.914Z,6.00
2019-03-12T18:20:14.519Z,5.90
2019-03-12T18:22:41.139Z,5.90
2019-03-12T18:25:11.048Z,5.90
2019-03-12T18:27:37.691Z,5.90
2019-03-12T18:30:12.871Z,5.80
2019-03-12T18:32:39.526Z,5.80
2019-03-12T18:35:07.307Z,5.80
2019-03-12T18:37:33.790Z,5.80
2019-03-12T18:40:00.467Z,5.70
2019-03-12T18:42:27.267Z,5.80
2019-03-12T18:44:53.581Z,5.70
2019-03-12T18:47:19.890Z,5.70
2019-03-12T18:49:46.407Z,5.70
2019-03-12T18:52:12.991Z,5.60
2019-03-12T18:54:41.393Z,5.60
2019-03-12T18:57:08.878Z,5.70
2019-03-12T18:59:40.411Z,5.70
2019-03-12T19:02:08.156Z,5.70
2019-03-12T19:04:34.843Z,5.70
2019-03-12T19:07:01.295Z,5.70
2019-03-12T19:09:29.803Z,5.70
2019-03-12T19:11:56.915Z,5.70
2019-03-12T19:14:23.314Z,5.70
2019-03-12T19:16:50.106Z,5.70
2019-03-12T19:19:16.782Z,5.70
2019-03-12T19:21:43.376Z,5.70
2019-03-12T19:24:09.766Z,5.60
2019-03-12T19:26:36.159Z,5.70
2019-03-12T19:29:02.649Z,5.60
2019-03-12T19:31:34.193Z,5.60
2019-03-12T19:34:02.899Z,5.50
2019-03-12T19:36:31.165Z,5.50
2019-03-12T19:38:57.839Z,5.50
2019-03-12T19:41:25.279Z,5.60
2019-03-12T19:43:51.657Z,5.60
2019-03-12T19:46:18.205Z,5.60
2019-03-12T19:48:44.723Z,5.60
2019-03-12T19:51:11.366Z,5.60
2019-03-12T19:53:38.074Z,5.60
2019-03-12T19:56:06.668Z,5.60
2019-03-12T19:58:33.322Z,5.70
2019-03-12T20:01:00.613Z,5.70
2019-03-12T20:03:27.515Z,5.70
2019-03-12T20:05:54.300Z,5.60
2019-03-12T20:08:20.969Z,5.60
2019-03-12T20:11:06.538Z,5.60
2019-03-12T20:13:56.049Z,5.60
2019-03-12T20:17:08.651Z,5.60
2019-03-12T20:20:03.857Z,5.60
2019-03-12T20:22:53.737Z,5.60
2019-03-12T20:25:29.952Z,5.60
2019-03-12T20:28:33.142Z,5.60
2019-03-12T20:31:25.761Z,5.60
2019-03-12T20:34:04.723Z,5.50
2019-03-12T20:36:35.157Z,5.60
2019-03-12T20:39:37.238Z,5.60
2019-03-12T20:42:25.954Z,5.60
2019-03-12T20:45:22.137Z,5.60
2019-03-12T20:48:15.364Z,5.70
2019-03-12T20:51:08.706Z,5.70
2019-03-12T20:54:12.314Z,5.60
2019-03-12T20:57:01.814Z,5.70
2019-03-12T21:00:04.024Z,5.70
2019-03-12T21:02:50.583Z,5.70
2019-03-12T21:05:26.966Z,5.70
2019-03-12T21:08:17.901Z,5.70
2019-03-12T21:11:13.966Z,5.80
2019-03-12T21:14:08.140Z,5.80
2019-03-12T21:17:02.613Z,5.80
2019-03-12T21:19:44.798Z,5.80
2019-03-12T21:22:37.926Z,5.80
2019-03-12T21:25:17.857Z,5.90
2019-03-12T21:28:04.411Z,5.90
2019-03-12T21:30:31.403Z,5.90
2019-03-12T21:32:58.155Z,5.90
2019-03-12T21:35:25.295Z,6.00
2019-03-12T21:37:52.135Z,6.00
2019-03-12T21:40:19.957Z,6.00
2019-03-12T21:42:48.245Z,6.10
2019-03-12T21:45:15.380Z,6.10
2019-03-12T21:47:41.741Z,6.10
2019-03-12T21:50:09.267Z,6.10
2019-03-12T21:52:35.916Z,6.10
2019-03-12T21:55:05.497Z,6.10
2019-03-12T21:57:31.861Z,6.10
2019-03-12T21:59:58.109Z,6.10
2019-03-12T22:02:24.364Z,6.10
2019-03-12T22:04:50.597Z,6.10
2019-03-12T22:07:16.861Z,6.10
2019-03-12T22:09:43.206Z,6.10
2019-03-12T22:12:10.139Z,6.10
2019-03-12T22:14:36.709Z,6.20
2019-03-12T22:17:04.326Z,6.20
2019-03-12T22:19:30.844Z,6.30
2019-03-12T22:21:59.023Z,6.40
2019-03-12T22:24:25.814Z,6.40
2019-03-12T22:26:52.125Z,6.40
2019-03-12T22:29:18.402Z,6.30
2019-03-12T22:31:45.858Z,6.30
2019-03-12T22:34:12.118Z,6.30
2019-03-12T22:36:38.569Z,6.30
2019-03-12T22:39:05.174Z,6.30
2019-03-12T22:41:33.378Z,6.20
2019-03-12T22:43:59.651Z,6.20
2019-03-12T22:46:25.999Z,6.20
2019-03-12T22:48:52.347Z,6.20
2019-03-12T22:51:18.965Z,6.10
2019-03-12T22:53:45.485Z,6.10
2019-03-12T22:56:11.757Z,6.10
2019-03-12T22:58:38.117Z,6.10
2019-03-12T23:01:22.666Z,6.10
2019-03-12T23:04:07.582Z,6.10
2019-03-12T23:06:52.218Z,6.00
2019-03-12T23:09:37.173Z,6.10
2019-03-12T23:12:05.305Z,6.10
2019-03-12T23:14:33.401Z,6.00
2019-03-12T23:16:59.722Z,6.00
2019-03-12T23:19:26.881Z,6.00
2019-03-12T23:21:53.224Z,6.00
2019-03-12T23:24:19.928Z,6.00
2019-03-12T23:26:46.544Z,6.00
2019-03-12T23:29:13.006Z,6.00
2019-03-12T23:31:39.452Z,6.00
2019-03-12T23:34:05.790Z,6.00
2019-03-12T23:36:32.422Z,6.00
2019-03-12T23:38:59.058Z,6.00
2019-03-12T23:41:25.568Z,6.00
2019-03-12T23:43:51.904Z,6.00
2019-03-12T23:46:18.289Z,5.90
2019-03-12T23:48:44.805Z,5.90
2019-03-12T23:51:11.282Z,5.90
2019-03-12T23:53:38.102Z,5.90
2019-03-12T23:56:04.881Z,5.90
2019-03-12T23:58:32.176Z,5.90
